createdAt,value
2018-03-02T00:00:39.688Z,75.20
2018-03-02T00:03:07.218Z,75.30
2018-03-02T00:05:35.500Z,75.70
2018-03-02T00:08:03.775Z,75.20
2018-03-02T00:10:32.227Z,75.50
2018-03-02T00:12:59.749Z,75.30
2018-03-02T00:15:27.248Z,75.50
2018-03-02T00:17:54.769Z,75.20
2018-03-02T00:20:22.372Z,75.30
2018-03-02T00:22:49.893Z,75.20
2018-03-02T00:25:17.450Z,74.90
2018-03-02T00:27:45.188Z,75.30
2018-03-02T00:30:12.698Z,75.60
2018-03-02T00:32:40.231Z,75.60
2018-03-02T00:35:07.734Z,75.60
2018-03-02T00:37:35.235Z,75.90
2018-03-02T00:40:02.754Z,76.30
2018-03-02T00:42:30.263Z,76.10
2018-03-02T00:44:57.759Z,76.40
2018-03-02T00:47:25.532Z,76.30
2018-03-02T00:49:53.034Z,76.80
2018-03-02T00:52:20.552Z,77.20
2018-03-02T00:54:48.083Z,76.90
2018-03-02T00:57:15.583Z,76.90
2018-03-02T00:59:43.078Z,77.00
2018-03-02T01:02:10.609Z,77.50
2018-03-02T01:04:38.963Z,78.00
2018-03-02T01:07:06.479Z,77.80
2018-03-02T01:09:34.006Z,77.50
2018-03-02T01:12:02.363Z,78.30
2018-03-02T01:14:29.863Z,78.10
2018-03-02T01:16:57.421Z,78.00
2018-03-02T01:19:24.926Z,78.10
2018-03-02T01:21:52.420Z,78.20
2018-03-02T01:24:19.955Z,79.00
2018-03-02T01:26:47.518Z,79.20
2018-03-02T01:29:15.382Z,79.10
2018-03-02T01:31:42.906Z,79.30
2018-03-02T01:34:10.410Z,79.40
2018-03-02T01:36:37.920Z,79.70
2018-03-02T01:39:05.623Z,80.40
2018-03-02T01:41:33.121Z,80.80
2018-03-02T01:44:00.622Z,80.80
2018-03-02T01:46:28.651Z,80.70
2018-03-02T01:48:56.282Z,80.70
2018-03-02T01:51:35.735Z,81.00
2018-03-02T01:54:03.239Z,81.40
2018-03-02T01:56:30.731Z,81.20
2018-03-02T02:30:40.654Z,84.50
2018-03-02T02:33:08.161Z,84.50
2018-03-02T02:35:35.659Z,85.10
2018-03-02T02:38:03.953Z,85.30
2018-03-02T02:40:31.450Z,85.30
2018-03-02T02:42:58.951Z,85.90
2018-03-02T02:45:27.441Z,86.20
2018-03-02T02:47:54.939Z,86.20
2018-03-02T02:50:23.201Z,86.70
2018-03-02T02:52:50.842Z,86.70
2018-03-02T02:55:18.567Z,87.60
2018-03-02T02:57:46.067Z,88.40
2018-03-02T03:00:13.610Z,88.40
2018-03-02T03:02:41.870Z,88.10
2018-03-02T03:05:09.365Z,88.10
2018-03-02T03:07:37.326Z,88.10
2018-03-02T03:10:04.824Z,88.50
2018-03-02T03:12:32.340Z,88.10
2018-03-02T03:15:00.720Z,88.30
2018-03-02T03:17:28.217Z,88.40
2018-03-02T03:19:56.209Z,88.80
2018-03-02T03:22:24.326Z,88.70
2018-03-02T03:24:51.823Z,89.30
2018-03-02T03:27:19.321Z,89.70
2018-03-02T03:29:46.866Z,89.70
2018-03-02T03:32:14.839Z,90.00
2018-03-02T03:34:42.338Z,90.30
2018-03-02T03:37:10.410Z,90.40
2018-03-02T03:39:37.900Z,90.40
2018-03-02T03:42:05.401Z,90.40
2018-03-02T03:44:32.996Z,90.50
2018-03-02T03:47:00.489Z,90.50
2018-03-02T03:49:27.999Z,91.00
2018-03-02T03:51:55.872Z,91.00
2018-03-02T03:54:23.369Z,90.90
2018-03-02T03:56:50.884Z,90.70
2018-03-02T03:59:19.427Z,90.80
2018-03-02T04:01:47.059Z,90.80
2018-03-02T04:04:14.558Z,91.00
2018-03-02T04:06:42.086Z,91.10
2018-03-02T04:09:09.885Z,91.00
2018-03-02T04:11:37.378Z,91.10
2018-03-02T04:14:04.921Z,91.00
2018-03-02T04:16:33.198Z,90.80
2018-03-02T04:19:01.461Z,91.00
2018-03-02T04:21:29.045Z,91.00
2018-03-02T04:23:57.329Z,91.40
2018-03-02T04:26:24.829Z,91.40
2018-03-02T04:28:53.141Z,91.60
2018-03-02T04:31:20.640Z,91.60
2018-03-02T04:33:48.352Z,91.70
2018-03-02T04:36:15.887Z,91.30
2018-03-02T04:38:43.393Z,91.30
2018-03-02T04:41:11.666Z,91.60
2018-03-02T04:43:40.473Z,91.60
2018-03-02T04:46:09.021Z,91.80
2018-03-02T04:48:36.528Z,91.80
2018-03-02T04:51:04.446Z,91.90
2018-03-02T04:53:31.970Z,92.00
2018-03-02T04:55:59.469Z,92.20
2018-03-02T04:58:27.020Z,92.20
2018-03-02T05:00:54.548Z,92.20
2018-03-02T05:03:22.058Z,92.30
2018-03-02T05:05:49.956Z,92.50
2018-03-02T05:08:17.452Z,92.50
2018-03-02T05:10:45.773Z,92.30
2018-03-02T05:13:14.582Z,92.80
2018-03-02T05:15:42.086Z,92.80
2018-03-02T05:18:09.586Z,92.70
2018-03-02T05:20:37.158Z,92.90
2018-03-02T05:23:04.682Z,92.70
2018-03-02T05:25:32.185Z,93.00
2018-03-02T05:27:59.731Z,93.10
2018-03-02T05:30:27.425Z,93.20
2018-03-02T05:32:54.964Z,93.20
2018-03-02T05:35:23.311Z,93.10
2018-03-02T05:37:50.798Z,93.00
2018-03-02T05:40:18.298Z,92.90
2018-03-02T05:42:45.841Z,93.10
2018-03-02T05:45:13.341Z,93.50
2018-03-02T05:47:40.913Z,93.60
2018-03-02T05:50:08.809Z,93.70
2018-03-02T05:52:36.318Z,93.80
2018-03-02T05:55:03.812Z,93.70
2018-03-02T05:57:31.704Z,94.30
2018-03-02T05:59:59.521Z,94.10
2018-03-02T06:02:27.022Z,94.10
2018-03-02T06:04:54.885Z,93.90
2018-03-02T06:07:22.493Z,93.90
2018-03-02T06:09:50.069Z,93.50
2018-03-02T06:12:17.628Z,93.70
2018-03-02T06:14:45.122Z,94.00
2018-03-02T06:17:13.389Z,93.90
2018-03-02T06:19:42.093Z,93.90
2018-03-02T06:22:09.594Z,93.90
2018-03-02T06:24:37.162Z,93.80
2018-03-02T06:27:04.695Z,94.10
2018-03-02T06:29:32.189Z,94.00
2018-03-02T06:31:59.693Z,93.90
2018-03-02T06:34:27.241Z,94.10
2018-03-02T06:36:55.083Z,94.10
2018-03-02T06:39:22.580Z,93.70
2018-03-02T06:41:50.446Z,93.60
2018-03-02T06:44:17.957Z,93.20
2018-03-02T06:46:45.485Z,92.90
2018-03-02T06:49:13.077Z,92.90
2018-03-02T06:51:40.585Z,92.70
2018-03-02T06:54:08.919Z,93.40
2018-03-02T06:56:36.768Z,93.10
2018-03-02T06:59:04.269Z,91.90
2018-03-02T07:01:31.785Z,92.00
2018-03-02T07:03:59.608Z,91.80
2018-03-02T07:06:27.126Z,91.30
2018-03-02T07:08:55.410Z,92.60
2018-03-02T07:11:23.212Z,91.70
2018-03-02T07:13:51.805Z,90.40
2018-03-02T07:16:19.314Z,90.40
2018-03-02T07:18:48.382Z,88.90
2018-03-02T07:21:15.897Z,88.90
2018-03-02T07:23:43.406Z,88.40
2018-03-02T07:26:11.242Z,87.90
2018-03-02T07:28:38.761Z,86.90
2018-03-02T07:31:06.261Z,86.10
2018-03-02T07:33:34.253Z,85.10
2018-03-02T07:36:01.774Z,84.30
2018-03-02T07:38:29.626Z,83.20
2018-03-02T07:40:57.371Z,82.70
2018-03-02T07:43:25.165Z,82.20
2018-03-02T07:45:53.445Z,80.80
2018-03-02T07:48:21.326Z,80.50
2018-03-02T07:50:49.645Z,79.90
2018-03-02T07:53:17.154Z,79.60
2018-03-02T07:55:45.467Z,79.30
2018-03-02T07:58:13.002Z,79.00
2018-03-02T08:00:41.344Z,79.80
2018-03-02T08:03:09.794Z,79.70
2018-03-02T08:05:37.306Z,79.40
2018-03-02T08:08:04.805Z,79.00
2018-03-02T08:10:32.344Z,78.80
2018-03-02T08:12:59.843Z,77.60
2018-03-02T08:15:27.414Z,82.30
2018-03-02T08:17:55.536Z,77.50
2018-03-02T08:20:23.036Z,75.00
2018-03-02T08:22:50.609Z,73.90
2018-03-02T08:25:18.159Z,72.10
2018-03-02T08:27:49.815Z,70.50
2018-03-02T08:30:17.313Z,70.20
2018-03-02T08:32:45.606Z,68.90
2018-03-02T08:35:13.155Z,68.60
2018-03-02T08:37:41.426Z,68.00
2018-03-02T08:40:10.045Z,70.80
2018-03-02T08:42:37.574Z,68.20
2018-03-02T08:47:19.241Z,67.80
2018-03-02T08:49:48.393Z,65.80
2018-03-02T08:52:18.233Z,64.90
2018-03-02T08:54:46.497Z,64.80
2018-03-02T09:13:26.650Z,71.80
2018-03-02T09:15:54.936Z,71.50
2018-03-02T09:18:23.197Z,55.60
2018-03-02T09:20:51.988Z,52.80
2018-03-02T09:23:20.233Z,51.10
2018-03-02T09:25:48.470Z,50.30
2018-03-02T09:28:16.916Z,50.10
2018-03-02T09:30:45.936Z,48.60
2018-03-02T09:33:14.179Z,48.60
2018-03-02T09:35:42.575Z,48.30
2018-03-02T09:38:10.818Z,48.20
2018-03-02T09:40:40.323Z,47.50
2018-03-02T09:43:09.413Z,46.40
2018-03-02T09:45:37.738Z,46.40
2018-03-02T09:48:05.982Z,46.00
2018-03-02T09:50:35.006Z,46.20
2018-03-02T09:53:03.421Z,46.20
2018-03-02T09:55:31.694Z,45.70
2018-03-02T09:57:59.962Z,45.40
2018-03-02T10:00:28.195Z,45.30
2018-03-02T10:02:56.452Z,44.80
2018-03-02T10:05:24.698Z,45.00
2018-03-02T10:07:52.934Z,44.70
2018-03-02T10:10:21.272Z,44.00
2018-03-02T10:12:49.611Z,43.70
2018-03-02T10:15:17.916Z,44.60
2018-03-02T10:17:46.321Z,44.10
2018-03-02T10:20:14.946Z,43.90
2018-03-02T10:22:43.185Z,44.00
2018-03-02T10:25:12.181Z,43.90
2018-03-02T10:27:40.445Z,43.90
2018-03-02T10:30:09.448Z,44.10
2018-03-02T10:32:38.459Z,43.70
2018-03-02T10:35:07.489Z,43.60
2018-03-02T10:37:35.734Z,43.60
2018-03-02T10:40:03.986Z,42.70
2018-03-02T10:42:33.396Z,42.40
2018-03-02T10:45:01.652Z,42.40
2018-03-02T10:47:29.887Z,42.30
2018-03-02T10:49:58.170Z,42.10
2018-03-02T10:52:26.413Z,42.00
2018-03-02T10:54:55.421Z,41.80
2018-03-02T10:57:23.969Z,41.90
2018-03-02T10:59:52.205Z,42.00
2018-03-02T11:02:21.488Z,41.90
2018-03-02T11:04:49.755Z,41.60
2018-03-02T11:07:18.010Z,41.50
2018-03-02T11:09:46.250Z,42.00
2018-03-02T11:12:14.510Z,41.60
2018-03-02T11:14:42.747Z,42.00
2018-03-02T11:17:10.994Z,42.10
2018-03-02T11:19:39.254Z,42.00
2018-03-02T11:22:07.488Z,41.70
2018-03-02T11:24:35.854Z,41.70
2018-03-02T11:27:05.684Z,41.20
2018-03-02T11:29:33.920Z,41.30
2018-03-02T11:32:02.534Z,41.50
2018-03-02T11:34:31.561Z,41.20
2018-03-02T11:36:59.840Z,41.10
2018-03-02T11:39:28.121Z,40.80
2018-03-02T11:41:56.369Z,40.70
2018-03-02T11:44:24.721Z,40.80
2018-03-02T11:46:53.844Z,40.20
2018-03-02T11:49:22.089Z,40.20
2018-03-02T11:51:50.354Z,40.10
2018-03-02T11:54:19.027Z,39.60
2018-03-02T11:56:47.321Z,40.10
2018-03-02T11:59:15.566Z,42.30
2018-03-02T12:01:43.799Z,42.20
2018-03-02T12:04:15.006Z,40.60
2018-03-02T12:06:43.298Z,40.50
2018-03-02T12:09:11.725Z,40.40
2018-03-02T12:11:40.027Z,40.00
2018-03-02T12:14:08.319Z,40.10
2018-03-02T12:16:36.592Z,39.90
2018-03-02T12:19:04.874Z,40.20
2018-03-02T12:21:33.293Z,40.30
2018-03-02T12:24:02.308Z,40.20
2018-03-02T12:26:30.627Z,40.20
2018-03-02T12:28:58.868Z,40.80
2018-03-02T12:31:27.125Z,41.00
2018-03-02T12:33:55.674Z,40.90
2018-03-02T12:36:23.950Z,40.80
2018-03-02T12:38:52.281Z,41.00
2018-03-02T12:41:21.270Z,41.40
2018-03-02T12:43:49.527Z,41.30
2018-03-02T12:46:18.658Z,41.80
2018-03-02T13:58:39.943Z,42.20
2018-03-02T14:01:08.227Z,41.50
2018-03-02T14:03:48.262Z,41.50
2018-03-02T14:06:17.464Z,41.70
2018-03-02T14:08:46.269Z,41.60
2018-03-02T14:11:14.530Z,42.00
2018-03-02T14:13:43.536Z,42.30
2018-03-02T14:16:11.787Z,42.30
2018-03-02T14:18:40.834Z,43.30
2018-03-02T14:21:09.199Z,42.90
2018-03-02T14:23:37.431Z,43.00
2018-03-02T14:26:06.475Z,44.00
2018-03-02T14:28:34.707Z,43.40
2018-03-02T14:31:03.718Z,44.20
2018-03-02T14:33:32.172Z,43.60
2018-03-02T14:36:00.411Z,44.00
2018-03-02T14:38:28.655Z,44.20
2018-03-02T14:40:56.956Z,43.90
2018-03-02T14:43:25.216Z,43.90
2018-03-02T14:45:53.710Z,44.30
2018-03-02T14:48:21.970Z,44.40
2018-03-02T14:50:50.210Z,44.40
2018-03-02T14:53:18.442Z,44.80
2018-03-02T14:55:46.702Z,44.90
2018-03-02T14:58:14.943Z,45.30
2018-03-02T15:00:43.343Z,45.40
2018-03-02T15:03:12.381Z,45.70
2018-03-02T15:05:40.621Z,45.60
2018-03-02T15:08:08.869Z,45.80
2018-03-02T15:10:37.514Z,46.00
2018-03-02T15:13:05.756Z,46.30
2018-03-02T15:15:34.759Z,46.60
2018-03-02T15:18:03.038Z,46.50
2018-03-02T15:20:31.432Z,46.50
2018-03-02T15:22:59.673Z,46.70
2018-03-02T15:25:28.197Z,46.90
2018-03-02T15:27:56.448Z,47.00
2018-03-02T15:30:25.460Z,47.60
2018-03-02T15:32:53.725Z,47.60
2018-03-02T15:35:22.066Z,47.60
2018-03-02T15:37:50.363Z,47.60
2018-03-02T15:40:18.651Z,47.70
2018-03-02T15:42:47.921Z,47.80
2018-03-02T15:45:16.525Z,47.80
2018-03-02T17:09:42.906Z,48.00
2018-03-02T17:12:11.162Z,52.00
2018-03-02T17:14:39.654Z,51.90
2018-03-02T17:17:07.961Z,52.10
2018-03-02T17:19:36.210Z,52.00
2018-03-02T17:22:04.472Z,52.30
2018-03-02T17:24:32.777Z,52.30
2018-03-02T17:27:01.080Z,52.20
2018-03-02T17:29:29.317Z,52.30
2018-03-02T17:31:57.605Z,52.30
2018-03-02T17:34:26.013Z,52.50
2018-03-02T17:36:54.253Z,52.40
2018-03-02T17:39:22.526Z,52.60
2018-03-02T17:41:51.550Z,52.80
2018-03-02T17:44:20.587Z,52.40
2018-03-02T17:46:48.865Z,52.80
2018-03-02T17:49:17.114Z,52.90
2018-03-02T17:51:45.360Z,53.10
2018-03-02T17:54:13.641Z,53.20
2018-03-02T17:56:41.908Z,53.30
2018-03-02T17:59:10.157Z,53.30
2018-03-02T18:01:38.426Z,53.30
2018-03-02T18:04:06.679Z,53.40
2018-03-02T18:06:34.934Z,53.30
2018-03-02T18:09:03.205Z,53.40
2018-03-02T18:11:31.804Z,53.60
2018-03-02T18:14:00.959Z,53.90
2018-03-02T18:16:29.242Z,53.90
2018-03-02T18:18:57.495Z,54.00
2018-03-02T18:21:25.748Z,54.40
2018-03-02T18:23:54.782Z,54.40
2018-03-02T18:26:23.035Z,54.40
2018-03-02T18:28:51.285Z,54.50
2018-03-02T18:31:20.329Z,54.80
2018-03-02T18:33:48.582Z,54.80
2018-03-02T18:36:17.042Z,55.00
2018-03-02T18:38:46.086Z,55.20
2018-03-02T18:41:14.331Z,55.20
2018-03-02T18:43:42.658Z,55.30
2018-03-02T18:46:10.988Z,55.30
2018-03-02T18:48:40.174Z,55.40
2018-03-02T18:51:09.187Z,55.30
2018-03-02T18:53:37.446Z,55.30
2018-03-02T18:56:05.709Z,55.40
2018-03-02T18:58:34.840Z,55.60
2018-03-02T19:01:03.121Z,55.60
2018-03-02T19:03:31.384Z,55.60
2018-03-02T19:05:59.633Z,56.00
2018-03-02T19:08:27.915Z,56.40
2018-03-02T19:10:56.920Z,56.50
2018-03-02T19:13:25.602Z,56.50
2018-03-02T19:15:54.652Z,56.80
2018-03-02T19:18:22.910Z,56.80
2018-03-02T19:20:51.171Z,57.00
2018-03-02T19:23:19.466Z,56.90
2018-03-02T19:25:47.714Z,57.20
2018-03-02T19:28:15.965Z,57.20
2018-03-02T19:30:44.250Z,57.30
2018-03-02T19:33:13.906Z,57.80
2018-03-02T19:35:42.165Z,57.70
2018-03-02T19:38:10.457Z,57.60
2018-03-02T19:40:38.702Z,57.60
2018-03-02T19:43:07.817Z,57.70
2018-03-02T19:45:36.105Z,57.70
2018-03-02T19:48:04.357Z,58.10
2018-03-02T19:50:33.377Z,58.20
2018-03-02T19:53:01.659Z,58.20
2018-03-02T19:55:29.905Z,58.30
2018-03-02T19:57:58.167Z,58.70
2018-03-02T20:00:26.473Z,58.90
2018-03-02T20:02:54.921Z,59.10
2018-03-02T20:05:23.175Z,59.40
2018-03-02T20:07:51.465Z,59.90
2018-03-02T20:10:19.718Z,60.00
2018-03-02T20:12:48.382Z,60.10
2018-03-02T20:15:18.017Z,60.10
2018-03-02T20:17:46.304Z,60.60
2018-03-02T20:20:14.801Z,60.60
2018-03-02T20:22:43.902Z,61.00
2018-03-02T20:25:12.150Z,61.00
2018-03-02T20:27:40.574Z,61.30
2018-03-02T20:30:09.858Z,61.90
2018-03-02T20:32:39.144Z,62.10
2018-03-02T20:35:08.515Z,62.40
2018-03-02T20:37:37.111Z,62.40
2018-03-02T20:40:06.259Z,62.80
2018-03-02T20:42:34.513Z,62.80
2018-03-02T20:45:03.036Z,63.20
2018-03-02T20:47:31.294Z,63.50
2018-03-02T20:50:00.412Z,64.80
2018-03-02T20:52:29.019Z,64.90
2018-03-02T20:54:57.494Z,65.50
2018-03-02T20:57:26.117Z,65.80
2018-03-02T20:59:54.858Z,66.10
2018-03-02T21:02:23.142Z,66.70
2018-03-02T21:04:51.518Z,67.20
2018-03-02T21:07:20.167Z,67.70
2018-03-02T21:09:48.425Z,68.10
2018-03-02T21:12:16.843Z,69.00
2018-03-02T21:14:45.108Z,68.90
2018-03-02T21:17:14.820Z,69.20
2018-03-02T21:19:44.071Z,69.70
2018-03-02T21:22:12.461Z,69.60
2018-03-02T21:24:40.919Z,70.10
2018-03-02T21:27:09.237Z,70.40
2018-03-02T21:29:37.550Z,70.80
2018-03-02T21:32:06.561Z,72.20
2018-03-02T21:34:34.854Z,72.20
2018-03-02T21:37:03.193Z,72.30
2018-03-02T21:39:32.197Z,73.70
2018-03-02T21:42:00.787Z,73.70
2018-03-02T21:44:29.317Z,74.30
2018-03-02T21:46:57.711Z,75.00
2018-03-02T21:49:26.142Z,75.40
2018-03-02T21:51:54.493Z,76.40
2018-03-02T21:54:22.948Z,76.50
2018-03-02T21:56:51.391Z,77.10
2018-03-02T21:59:19.684Z,77.80
2018-03-02T22:01:47.959Z,78.10
2018-03-02T22:04:16.200Z,78.50
2018-03-02T22:06:45.066Z,78.10
2018-03-02T22:09:13.679Z,79.10
2018-03-02T22:11:41.949Z,80.70
2018-03-02T22:14:10.945Z,80.20
2018-03-02T22:16:39.234Z,80.60
2018-03-02T22:19:07.669Z,80.80
2018-03-02T22:21:35.932Z,81.40
2018-03-02T22:24:04.190Z,82.30
2018-03-02T22:26:32.575Z,82.40
2018-03-02T22:29:00.830Z,83.50
2018-03-02T22:31:29.540Z,83.60
2018-03-02T22:33:58.553Z,85.20
2018-03-02T22:36:26.817Z,85.20
2018-03-02T22:38:55.061Z,86.50
2018-03-02T22:41:23.317Z,86.80
2018-03-02T22:43:52.363Z,88.20
2018-03-02T22:46:20.607Z,88.20
2018-03-02T22:48:48.870Z,89.60
2018-03-02T22:51:17.146Z,91.60
2018-03-02T22:53:46.173Z,94.10
2018-03-02T22:56:14.425Z,94.10
2018-03-02T22:58:42.704Z,95.50
2018-03-02T23:01:11.081Z,96.50
2018-03-02T23:03:39.345Z,97.90
2018-03-02T23:06:08.379Z,98.20
2018-03-02T23:08:37.346Z,98.10
2018-03-02T23:11:05.959Z,98.90
2018-03-02T23:13:34.229Z,98.90
2018-03-02T23:16:02.486Z,99.40
2018-03-02T23:18:30.742Z,99.90
2018-03-02T23:20:59.926Z,99.90
2018-03-02T23:23:28.178Z,99.90
2018-03-02T23:25:56.685Z,99.90
2018-03-02T23:28:24.957Z,99.90
2018-03-02T23:30:53.221Z,99.90
2018-03-02T23:33:21.455Z,99.90
2018-03-02T23:35:49.720Z,99.90
2018-03-02T23:38:17.979Z,99.90
2018-03-02T23:40:46.239Z,99.90
2018-03-02T23:43:14.497Z,99.90
2018-03-02T23:45:43.663Z,99.90
2018-03-02T23:48:11.924Z,99.90
2018-03-02T23:50:40.982Z,99.90
2018-03-02T23:53:09.229Z,99.90
2018-03-02T23:55:37.469Z,99.90
2018-03-02T23:58:05.914Z,99.90
